Flight Track Log - Related Links

Times and Time Zones

All times are in EDT time to prevent confusion due to time zone crossing. See the N100WX flight status page for this flight to view local times or setup timezone preferences in your user account.

Time Position Orientation Groundspeed Altitude Reporting Facility
EDT Latitude Longitude Course Direction KTS MPH feet Rate Location/Type
Sat 09:00:00 PM 41.5111 -70.2638 330° Northwest  Level FlightAware Approximate
Sat 09:01:00 PM 41.5553 -70.2980 330° Northwest  Level FlightAware Approximate
Sat 09:02:00 PM 41.5995 -70.3323 330° Northwest  Level FlightAware Approximate
Sat 09:02:52 PM 41.7333 -70.4333 330° Northwest 250 288 4,000  Level KA90
Sat 09:03:00 PM 41.6437 -70.3666 330° Northwest  Level FlightAware Approximate
Sat 09:03:22 PM 41.7500 -70.4667 304° West 244 281 4,000  Level KA90
Sat 09:04:00 PM 41.6878 -70.4009 330° Northwest  Level FlightAware Approximate
Sat 09:04:22 PM 41.8000 -70.5000 334° Northwest 231 266 4,000  Level KA90
Sat 09:05:00 PM 41.7320 -70.4353 330° Northwest  Level FlightAware Approximate
Sat 09:05:10 PM 41.8500 -70.5500 323° Northwest 227 261 4,000  Level KA90
Sat 09:06:00 PM 41.7761 -70.4698 330° Northwest  Level FlightAware Approximate
Sat 09:06:05 PM 41.8833 -70.6000 312° West 221 254 4,000  Level KA90
Sat 09:07:00 PM 41.8203 -70.5042 330° Northwest  Level FlightAware Approximate
Sat 09:07:16 PM 41.9500 -70.6500 331° Northwest 222 255 4,000  Level KA90
Sat 09:08:00 PM 41.8644 -70.5388 330° Northwest  Level FlightAware Approximate
Sat 09:08:11 PM 42.0000 -70.7000 323° Northwest 222 255 4,000  Level KA90
Sat 09:09:05 PM 42.0333 -70.7500 312° West 219 252 4,000  Level KA90
Sat 09:10:05 PM 42.0667 -70.8000 312° West 220 253 4,000  Level KA90
Sat 09:11:04 PM 42.1167 -70.8667 315° West 217 250 4,000  Level KA90
Sat 09:12:10 PM 42.1667 -70.9333 315° West 216 249 4,000  Level KA90
Sat 09:13:11 PM 42.2000 -70.9833 312° West 215 247 4,000  Level KA90
Sat 09:14:05 PM 42.2333 -71.0500 304° West 215 247 4,000  Level KA90
Sat 09:15:05 PM 42.2833 -71.1000 324° Northwest 215 247 4,000 -150 Level KA90
Sat 09:16:05 PM 42.3167 -71.1667 304° West 218 251 3,700 -429 Descending KA90
Sat 09:17:11 PM 42.3667 -71.2333 315° West 228 262 3,100 -605 Descending KA90
Sat 09:18:04 PM 42.4167 -71.2500 346° North 248 285 2,500 -632 Descending KA90
Sat 09:19:05 PM 42.4667 -71.2167 26° Northeast 220 253 1,900 -347 Descending KA90
Sat 09:20:05 PM 42.5167 -71.2000 14° North 121 139 1,800 -400 Descending KA90
Sat 09:21:05 PM 42.5167 -71.2333 270° West 106 122 1,100 -500 Descending KA90
Sat 09:22:05 PM 42.5000 -71.2667 236° Southwest 98 113 800 -300 Descending KA90
Sat 09:24:00 PM 42.4667 -71.2833 231° Southwest  Level FlightAware Approximate
Sat 09:31:00 PM 42.4699 -71.2890 231° Southwest  Level Estimated

Login

Don't have an account? Register now (free) for customized features, flight alerts, and more!